EW0150 Weather Reports


time (UTC)temp
C
wind
direction
speed
KPH
gust
KPH
rain 1hr
cm
rain 24hr
cm
rain mn
cm
humidity
%
barometer
mb
20200606175927 22 0 0.0 0.0 0.00 0.03 0.03 61 1006.7
20200606174627 22 0 0.0 0.0 0.00 0.03 0.03 59 1006.6
20200606173327 22 0 0.0 0.0 0.00 0.03 0.03 58 1006.7
20200606172027 22 265 3.2 9.7 0.00 0.03 0.03 56 1006.7
20200606170727 22 253 6.4 14.5 0.00 0.03 0.03 55 1006.7
20200606165427 23 250 8.0 17.7 0.00 0.03 0.03 54 1006.6
20200606164127 23 254 11.3 17.7 0.00 0.03 0.03 52 1006.5
20200606162827 23 243 11.3 17.7 0.00 0.03 0.03 52 1006.5
20200606161527 23 244 14.5 24.1 0.00 0.03 0.03 50 1006.4
20200606160227 24 236 12.9 22.5 0.00 0.03 0.03 49 1006.3
20200606154927 24 231 12.9 24.1 0.00 0.03 0.03 50 1006.3
20200606153627 23 221 9.7 17.7 0.00 0.03 0.03 51 1006.3
20200606152326 24 214 14.5 25.7 0.00 0.03 0.03 50 1006.1
20200606151027 24 222 14.5 29.0 0.00 0.03 0.03 49 1006.3
20200606145727 24 218 12.9 24.1 0.00 0.05 0.03 50 1006.3
20200606144426 25 233 12.9 24.1 0.00 0.05 0.03 49 1006.3
20200606143225 25 216 16.1 27.4 0.00 0.05 0.03 51 1006.4
20200606141827 24 234 12.9 24.1 0.00 0.05 0.03 53 1006.4
20200606140526 23 218 14.5 27.4 0.00 0.05 0.03 54 1006.5
20200606135227 23 220 12.9 22.5 0.00 0.05 0.03 54 1006.5
20200606133926 24 213 16.1 30.6 0.00 0.05 0.03 51 1006.6
20200606132626 23 221 12.9 22.5 0.00 0.05 0.03 51 1006.6
20200606131327 23 221 14.5 27.4 0.00 0.05 0.03 52 1006.7
20200606130027 23 215 17.7 32.2 0.03 0.05 0.03 50 1006.9
20200606124726 23 242 17.7 29.0 0.03 0.05 0.03 50 1006.9
20200606123426 23 219 16.1 40.2 0.03 0.05 0.03 52 1007.1
20200606122126 23 240 17.7 30.6 0.03 0.05 0.03 51 1007.1
20200606120826 23 204 19.3 30.6 0.03 0.08 0.03 53 1007.2
20200606115526 23 207 17.7 30.6 0.00 0.05 0.00 55 1007.3
20200606114226 23 233 16.1 27.4 0.00 0.05 0.00 54 1007.3
20200606112926 22 218 16.1 29.0 0.00 0.10 0.00 55 1007.1
20200606111626 22 249 17.7 30.6 0.00 0.10 0.00 55 1007.2
20200606110326 22 240 17.7 35.4 0.00 0.10 0.00 55 1007.1
20200606105026 22 255 14.5 30.6 0.00 0.10 0.00 56 1007.0
20200606103726 22 228 17.7 32.2 0.00 0.10 0.00 55 1007.2
20200606102426 21 205 20.9 40.2 0.00 0.10 0.00 56 1007.3
20200606101126 21 215 19.3 32.2 0.00 0.10 0.00 57 1007.2
20200606095826 21 218 17.7 29.0 0.00 0.10 0.00 55 1007.3
20200606094526 21 202 17.7 33.8 0.00 0.10 0.00 58 1007.3
20200606093226 21 201 20.9 37.0 0.00 0.20 0.00 55 1007.3
20200606091926 21 214 20.9 33.8 0.00 0.30 0.00 55 1007.2
20200606090626 20 197 19.3 35.4 0.00 0.43 0.00 56 1007.1
20200606085326 20 196 24.1 40.2 0.00 0.48 0.00 58 1007.0
20200606084026 20 194 24.1 38.6 0.00 0.51 0.00 59 1006.8
20200606082726 19 218 16.1 29.0 0.00 0.51 0.00 61 1006.8
20200606081426 19 216 17.7 30.6 0.00 0.51 0.00 60 1006.9
20200606080126 18 211 20.9 30.6 0.00 0.51 0.00 61 1006.9
20200606074826 19 198 19.3 33.8 0.00 0.51 0.00 60 1006.8
20200606073526 18 204 20.9 29.0 0.00 0.51 0.00 61 1006.8
20200606072226 18 209 19.3 33.8 0.00 0.51 0.00 62 1006.7
20200606070926 18 211 16.1 29.0 0.00 0.51 0.00 64 1006.6
20200606065626 17 217 14.5 30.6 0.00 0.51 0.00 64 1006.6
20200606064327 17 215 14.5 25.7 0.00 0.51 0.00 64 1006.6
20200606063026 17 220 16.1 29.0 0.00 0.51 0.00 66 1006.7
20200606061726 17 214 14.5 25.7 0.00 0.51 0.00 69 1006.7
20200606060426 16 205 17.7 25.7 0.00 0.51 0.00 70 1006.5
20200606055126 16 198 16.1 25.7 0.00 0.51 0.00 72 1006.1
20200606053826 15 198 16.1 32.2 0.00 0.51 0.00 74 1006.0
20200606052526 15 206 12.9 22.5 0.00 0.51 0.00 74 1006.2
20200606051226 15 217 11.3 16.1 0.00 0.51 0.00 76 1006.3
20200606045926 14 205 11.3 20.9 0.00 0.51 0.00 77 1006.0
20200606044626 14 214 14.5 24.1 0.00 0.51 0.00 77 1005.8
20200606043326 13 194 14.5 27.4 0.00 0.51 0.00 77 1005.1
20200606042026 13 204 16.1 25.7 0.00 0.51 0.00 80 1005.5
20200606040726 13 203 16.1 27.4 0.00 0.51 0.00 82 1005.5
20200606035426 12 216 16.1 29.0 0.00 0.51 0.00 83 1005.7
20200606034126 12 220 11.3 20.9 0.00 0.51 0.00 83 1005.4
20200606032826 12 210 11.3 22.5 0.00 0.51 0.00 83 1005.3
20200606031526 12 202 11.3 22.5 0.00 0.51 0.00 84 1005.0
20200606030226 12 221 9.7 17.7 0.00 0.51 0.00 85 1005.0
20200606024926 12 223 8.0 14.5 0.00 0.51 0.00 84 1004.9
20200606023626 12 225 8.0 16.1 0.00 0.51 0.00 84 1004.8
20200606022326 12 214 11.3 19.3 0.00 0.51 0.00 84 1004.7
20200606021026 12 212 12.9 25.7 0.00 0.51 0.00 84 1004.7
20200606015726 12 206 14.5 27.4 0.00 0.51 0.00 84 1004.7
20200606014426 12 201 16.1 29.0 0.00 0.51 0.00 84 1004.6
20200606013126 12 197 12.9 24.1 0.00 0.51 0.00 85 1004.6
20200606011826 12 205 14.5 24.1 0.00 0.51 0.00 85 1004.4
20200606010526 12 206 12.9 22.5 0.00 0.51 0.00 86 1004.2
20200606005226 12 202 12.9 22.5 0.00 0.51 0.00 87 1004.1
20200606003926 12 202 14.5 24.1 0.00 0.51 0.00 86 1004.1
20200606002626 12 210 16.1 27.4 0.00 0.51 0.00 85 1004.1
20200606001326 12 210 14.5 25.7 0.00 0.51 0.00 85 1004.0
20200606000026 12 204 16.1 27.4 0.00 0.51 0.00 84 1003.8
20200605234726 12 202 17.7 29.0 0.00 0.51 0.00 84 1003.6
20200605233426 12 201 17.7 32.2 0.00 0.51 0.00 84 1003.3
20200605232126 12 205 12.9 22.5 0.00 0.51 0.00 86 1003.2
20200605230826 12 203 12.9 20.9 0.00 0.51 0.00 87 1003.0
20200605225526 11 198 11.3 17.7 0.00 0.51 0.00 89 1002.9
20200605224226 11 203 9.7 16.1 0.00 0.51 0.00 89 1002.8
20200605222926 12 221 8.0 14.5 0.00 0.51 0.00 88 1002.9
20200605221626 12 211 8.0 16.1 0.00 0.51 0.00 88 1002.7
20200605220326 12 198 9.7 20.9 0.00 0.51 0.00 88 1002.6
20200605215026 12 194 11.3 22.5 0.00 0.53 0.51 89 1002.3
20200605213726 12 191 12.9 19.3 0.00 0.53 0.51 89 1002.3
20200605212426 12 189 11.3 17.7 0.00 0.53 0.51 89 1002.2
20200605211126 12 199 11.3 19.3 0.00 0.53 0.51 88 1002.0
20200605205826 12 202 11.3 19.3 0.00 0.53 0.51 88 1002.2
20200605204526 12 195 11.3 17.7 0.00 0.53 0.51 88 1001.9
20200605203226 12 200 11.3 19.3 0.00 0.53 0.51 88 1002.0
20200605201926 12 199 8.0 14.5 0.00 0.56 0.51 89 1001.8
20200605200626 12 196 4.8 12.9 0.00 0.56 0.51 90 1001.9
20200605195326 12 193 6.4 11.3 0.00 0.56 0.51 90 1001.9
20200605194040 12 187 8.0 12.9 0.00 0.56 0.51 90 1001.8
20200605192726 12 178 8.0 16.1 0.00 0.56 0.51 90 1001.8
20200605191426 13 192 6.4 12.9 0.00 0.56 0.51 89 1001.6
20200605190126 13 194 6.4 14.5 0.00 0.56 0.51 89 1001.4
20200605184826 13 184 9.7 16.1 0.00 0.56 0.51 89 1000.9
20200605183526 13 165 8.0 16.1 0.00 0.56 0.51 89 1000.8
20200605182226 13 158 6.4 11.3 0.00 0.56 0.51 90 1000.8